createdAt,value
2018-09-15T00:01:33.785Z,29.47
2018-09-15T00:04:03.038Z,27.40
2018-09-15T00:06:32.404Z,27.37
2018-09-15T00:09:01.705Z,25.97
2018-09-15T00:11:30.942Z,29.23
2018-09-15T00:14:00.182Z,26.70
2018-09-15T00:16:29.491Z,24.97
2018-09-15T00:18:58.841Z,26.20
2018-09-15T00:21:28.043Z,26.00
2018-09-15T00:23:57.338Z,24.87
2018-09-15T00:26:26.715Z,27.97
2018-09-15T00:28:55.945Z,24.70
2018-09-15T00:31:25.167Z,24.93
2018-09-15T00:33:54.410Z,24.47
2018-09-15T00:36:23.650Z,25.20
2018-09-15T00:38:52.934Z,27.20
2018-09-15T00:41:22.239Z,27.80
2018-09-15T00:43:51.490Z,27.63
2018-09-15T00:46:20.737Z,29.57
2018-09-15T00:48:49.997Z,28.30
2018-09-15T00:51:19.285Z,28.57
2018-09-15T00:53:48.842Z,30.70
2018-09-15T00:56:18.172Z,31.70
2018-09-15T00:58:47.900Z,30.77
2018-09-15T01:01:17.218Z,29.90
2018-09-15T01:03:46.542Z,29.93
2018-09-15T01:06:15.928Z,31.47
2018-09-15T01:08:45.257Z,28.02
2018-09-15T01:11:14.629Z,29.20
2018-09-15T01:13:43.869Z,32.20
2018-09-15T01:16:13.130Z,30.90
2018-09-15T01:18:42.362Z,31.37
2018-09-15T01:21:11.616Z,33.70
2018-09-15T01:23:40.963Z,31.50
2018-09-15T01:26:10.287Z,36.83
2018-09-15T01:28:39.458Z,33.05
2018-09-15T01:31:08.893Z,36.33
2018-09-15T01:33:38.134Z,36.43
2018-09-15T01:36:07.370Z,35.10
2018-09-15T01:38:36.760Z,35.70
2018-09-15T01:41:06.121Z,35.30
2018-09-15T01:43:35.470Z,36.73
2018-09-15T01:46:04.730Z,35.37
2018-09-15T01:48:34.013Z,35.80
2018-09-15T01:51:03.273Z,32.20
2018-09-15T01:53:32.499Z,30.50
2018-09-15T01:56:01.840Z,30.33
2018-09-15T01:58:31.135Z,24.80
2018-09-15T02:01:00.417Z,21.00
2018-09-15T02:03:29.773Z,23.10
2018-09-15T02:05:59.322Z,26.37
2018-09-15T02:08:28.647Z,24.17
2018-09-15T02:10:57.924Z,26.10
2018-09-15T02:13:27.282Z,23.80
2018-09-15T02:15:56.540Z,26.93
2018-09-15T02:18:25.782Z,25.37
2018-09-15T02:20:55.088Z,26.57
2018-09-15T02:23:24.338Z,27.03
2018-09-15T02:25:53.713Z,25.47
2018-09-15T02:28:22.985Z,29.10
2018-09-15T02:30:52.288Z,28.90
2018-09-15T02:33:21.523Z,27.90
2018-09-15T02:35:50.863Z,29.60
2018-09-15T02:38:20.188Z,29.10
2018-09-15T02:40:49.439Z,30.27
2018-09-15T02:43:18.713Z,28.80
2018-09-15T02:45:48.082Z,28.80
2018-09-15T02:48:17.311Z,31.07
2018-09-15T02:50:46.672Z,31.37
2018-09-15T02:53:17.473Z,33.10
2018-09-15T02:55:47.202Z,33.73
2018-09-15T02:58:16.510Z,37.57
2018-09-15T03:00:45.782Z,36.90
2018-09-15T03:03:15.042Z,40.07
2018-09-15T03:05:44.273Z,42.20
2018-09-15T03:08:13.610Z,43.60
2018-09-15T03:10:42.901Z,44.40
2018-09-15T03:13:12.848Z,42.53
2018-09-15T03:15:42.465Z,43.33
2018-09-15T03:18:11.833Z,43.53
2018-09-15T03:20:41.057Z,42.37
2018-09-15T03:23:10.942Z,43.37
2018-09-15T03:25:40.280Z,43.73
2018-09-15T03:28:09.616Z,40.35
2018-09-15T03:30:38.971Z,43.23
2018-09-15T03:33:08.461Z,41.70
2018-09-15T03:35:37.755Z,41.47
2018-09-15T03:38:07.020Z,39.30
2018-09-15T03:40:36.359Z,41.97
2018-09-15T03:43:05.857Z,41.90
2018-09-15T03:45:35.133Z,39.30
2018-09-15T03:48:04.879Z,42.93
2018-09-15T03:50:34.174Z,42.57
2018-09-15T03:53:03.529Z,41.10
2018-09-15T03:55:32.812Z,39.50
2018-09-15T03:58:02.080Z,40.57
2018-09-15T04:00:31.614Z,39.00
2018-09-15T04:03:01.004Z,38.33
2018-09-15T04:05:30.318Z,42.17
2018-09-15T04:07:59.572Z,43.23
2018-09-15T04:10:28.895Z,45.17
2018-09-15T04:12:58.226Z,43.20
2018-09-15T04:15:27.515Z,43.08
2018-09-15T04:17:57.397Z,40.40
2018-09-15T04:20:26.638Z,40.40
2018-09-15T04:22:55.889Z,39.23
2018-09-15T04:25:25.309Z,39.37
2018-09-15T04:27:54.576Z,38.53
2018-09-15T04:30:23.872Z,40.37
2018-09-15T04:32:53.200Z,38.93
2018-09-15T04:35:22.501Z,40.88
2018-09-15T04:37:51.792Z,38.27
2018-09-15T04:40:21.354Z,39.20
2018-09-15T04:42:50.538Z,36.37
2018-09-15T04:45:19.855Z,38.05
2018-09-15T04:47:49.428Z,45.90
2018-09-15T04:50:18.720Z,47.80
2018-09-15T04:52:48.347Z,43.07
2018-09-15T04:55:17.765Z,47.27
2018-09-15T04:57:47.024Z,43.60
2018-09-15T05:00:16.367Z,43.10
2018-09-15T05:02:45.614Z,42.20
2018-09-15T05:05:14.941Z,43.83
2018-09-15T05:07:44.164Z,44.60
2018-09-15T05:10:13.465Z,42.35
2018-09-15T05:12:42.802Z,44.23
2018-09-15T05:15:12.066Z,48.00
2018-09-15T05:17:41.284Z,44.67
2018-09-15T05:20:10.529Z,45.03
2018-09-15T05:22:39.831Z,45.50
2018-09-15T05:25:09.235Z,47.33
2018-09-15T05:27:38.526Z,47.50
2018-09-15T05:30:08.406Z,47.70
2018-09-15T05:32:37.702Z,50.27
2018-09-15T05:35:07.088Z,50.07
2018-09-15T05:37:36.327Z,49.97
2018-09-15T05:40:06.350Z,47.37
2018-09-15T05:42:35.713Z,47.60
2018-09-15T05:45:05.041Z,46.70
2018-09-15T05:47:34.309Z,45.13
2018-09-15T05:50:03.590Z,45.50
2018-09-15T05:52:32.822Z,43.73
2018-09-15T05:55:02.096Z,42.13
2018-09-15T05:57:31.412Z,43.77
2018-09-15T06:00:00.694Z,42.70
2018-09-15T06:02:29.956Z,42.50
2018-09-15T06:04:59.154Z,41.20
2018-09-15T06:07:28.510Z,42.60
2018-09-15T06:09:57.800Z,42.30
2018-09-15T06:12:27.021Z,41.50
2018-09-15T06:14:56.300Z,42.40
2018-09-15T06:17:25.499Z,40.80
2018-09-15T06:19:54.788Z,38.20
2018-09-15T06:22:24.022Z,40.47
2018-09-15T06:24:53.233Z,41.00
2018-09-15T06:27:22.445Z,42.93
2018-09-15T06:29:51.710Z,39.37
2018-09-15T06:32:20.898Z,41.97
2018-09-15T06:34:50.119Z,41.30
2018-09-15T06:37:19.326Z,40.05
2018-09-15T06:39:48.710Z,38.47
2018-09-15T06:42:18.002Z,37.17
2018-09-15T06:44:47.262Z,38.13
2018-09-15T06:47:16.500Z,37.20
2018-09-15T06:49:45.735Z,35.00
2018-09-15T06:52:15.115Z,37.83
2018-09-15T06:54:44.363Z,29.20
2018-09-15T06:57:13.598Z,28.83
2018-09-15T06:59:42.870Z,33.47
2018-09-15T07:02:12.196Z,29.07
2018-09-15T07:04:41.469Z,26.90
2018-09-15T07:07:11.778Z,33.43
2018-09-15T07:09:41.124Z,29.50
2018-09-15T07:12:10.366Z,30.53
2018-09-15T07:14:39.731Z,27.80
2018-09-15T07:17:09.337Z,31.90
2018-09-15T07:19:38.677Z,30.00
2018-09-15T07:22:08.036Z,28.80
2018-09-15T07:24:37.268Z,27.60
2018-09-15T07:27:06.688Z,25.27
2018-09-15T07:29:35.986Z,28.20
2018-09-15T07:32:05.256Z,25.97
2018-09-15T07:34:34.545Z,20.37
2018-09-15T07:37:03.843Z,24.67
2018-09-15T07:39:33.141Z,23.73
2018-09-15T07:42:02.374Z,22.98
2018-09-15T07:44:32.155Z,23.43
2018-09-15T07:47:01.492Z,23.27
2018-09-15T07:49:30.708Z,24.47
2018-09-15T07:51:59.993Z,24.90
2018-09-15T07:54:29.207Z,25.80
2018-09-15T07:56:58.959Z,25.30
2018-09-15T07:59:28.553Z,24.80
2018-09-15T08:01:57.914Z,24.90
2018-09-15T08:04:27.131Z,26.53
2018-09-15T08:06:56.386Z,27.70
2018-09-15T08:09:25.619Z,26.02
2018-09-15T08:11:54.900Z,27.30
2018-09-15T08:14:24.230Z,26.37
2018-09-15T08:16:53.471Z,25.37
2018-09-15T08:19:23.186Z,27.25
2018-09-15T08:21:52.481Z,26.67
2018-09-15T08:24:21.747Z,27.80
2018-09-15T08:26:51.064Z,27.00
2018-09-15T08:29:20.391Z,27.83
2018-09-15T08:31:50.267Z,28.00
2018-09-15T08:34:19.567Z,27.87
2018-09-15T08:36:48.907Z,30.90
2018-09-15T08:39:18.205Z,29.83
2018-09-15T08:41:47.471Z,28.13
2018-09-15T08:44:16.770Z,27.80
2018-09-15T08:46:46.049Z,28.03
2018-09-15T08:49:15.236Z,28.13
2018-09-15T08:51:44.534Z,26.97
2018-09-15T08:54:13.910Z,27.17
2018-09-15T08:56:43.100Z,26.20
2018-09-15T08:59:13.184Z,26.47
2018-09-15T09:01:42.464Z,24.90
2018-09-15T09:04:11.673Z,25.87
2018-09-15T09:06:41.017Z,24.40
2018-09-15T09:09:12.646Z,27.32
2018-09-15T09:11:41.876Z,26.13
2018-09-15T09:14:11.184Z,24.97
2018-09-15T09:16:40.537Z,25.17
2018-09-15T09:19:09.749Z,24.53
2018-09-15T09:21:39.046Z,27.37
2018-09-15T09:24:08.924Z,27.10
2018-09-15T09:26:38.311Z,27.90
2018-09-15T09:29:08.578Z,28.10
2018-09-15T09:31:37.806Z,29.80
2018-09-15T09:34:07.004Z,29.57
2018-09-15T09:36:36.269Z,31.23
2018-09-15T09:39:08.841Z,30.73
2018-09-15T09:41:38.403Z,30.10
2018-09-15T09:44:07.828Z,29.83
2018-09-15T09:46:37.385Z,29.40
2018-09-15T09:49:07.043Z,27.97
2018-09-15T09:51:36.262Z,27.00
2018-09-15T09:54:05.574Z,28.33
2018-09-15T09:56:34.836Z,27.57
2018-09-15T09:59:04.049Z,27.90
2018-09-15T10:01:38.474Z,27.73
2018-09-15T10:04:07.680Z,24.33
2018-09-15T10:06:36.964Z,22.93
2018-09-15T10:09:09.143Z,21.73
2018-09-15T10:11:39.458Z,21.37
2018-09-15T10:14:08.707Z,21.40
2018-09-15T10:16:38.045Z,22.40
2018-09-15T10:19:12.048Z,19.47
2018-09-15T10:21:56.897Z,20.67
2018-09-15T10:24:26.207Z,20.60
2018-09-15T10:26:55.668Z,21.80
2018-09-15T10:29:25.417Z,21.27
2018-09-15T10:31:54.737Z,20.00
2018-09-15T10:34:24.020Z,19.70
2018-09-15T10:36:53.274Z,20.87
2018-09-15T10:39:22.536Z,18.98
2018-09-15T10:41:51.743Z,19.07
2018-09-15T10:44:21.008Z,23.07
2018-09-15T10:46:50.256Z,21.57
2018-09-15T10:49:19.446Z,24.57
2018-09-15T10:51:48.884Z,23.50
2018-09-15T10:54:18.062Z,22.53
2018-09-15T10:56:47.337Z,19.13
2018-09-15T10:59:16.581Z,16.70
2018-09-15T11:01:45.925Z,15.87
2018-09-15T11:04:15.203Z,15.63
2018-09-15T11:06:44.720Z,11.13
2018-09-15T11:09:14.090Z,11.17
2018-09-15T11:11:43.355Z,12.23
2018-09-15T11:14:12.669Z,11.37
2018-09-15T11:16:41.954Z,12.10
2018-09-15T11:19:11.430Z,10.93
2018-09-15T11:21:40.701Z,9.03
2018-09-15T11:24:09.961Z,9.50
2018-09-15T11:26:39.277Z,10.98
2018-09-15T11:29:08.669Z,9.53
2018-09-15T11:31:37.926Z,10.33
2018-09-15T11:34:07.292Z,10.07
2018-09-15T11:36:36.496Z,9.60
2018-09-15T11:39:08.702Z,9.90
2018-09-15T11:41:38.057Z,10.50
2018-09-15T11:44:07.503Z,9.17
2018-09-15T11:46:38.145Z,11.63
2018-09-15T11:49:07.780Z,10.60
2018-09-15T11:51:37.117Z,9.70
2018-09-15T11:54:06.373Z,10.20
2018-09-15T11:56:35.585Z,10.25
2018-09-15T12:24:26.808Z,7.40
2018-09-15T12:26:56.946Z,5.87
2018-09-15T12:29:26.051Z,6.40
2018-09-15T12:31:55.297Z,6.80
2018-09-15T12:34:25.440Z,6.80
2018-09-15T12:36:54.752Z,6.33
2018-09-15T12:39:24.520Z,6.07
2018-09-15T12:41:53.709Z,7.13
2018-09-15T12:44:22.865Z,6.40
2018-09-15T12:46:53.142Z,7.43
2018-09-15T12:49:22.414Z,6.40
2018-09-15T12:51:51.807Z,6.20
2018-09-15T12:54:20.937Z,6.80
2018-09-15T12:56:50.153Z,6.60
2018-09-15T12:59:19.446Z,7.60
2018-09-15T13:01:49.112Z,5.33
2018-09-15T13:04:18.334Z,5.00
2018-09-15T13:06:47.871Z,6.30
2018-09-15T13:09:17.234Z,5.30
2018-09-15T13:11:47.362Z,6.40
2018-09-15T13:14:16.572Z,6.43
2018-09-15T13:16:45.847Z,7.47
2018-09-15T13:19:15.106Z,6.70
2018-09-15T13:21:44.378Z,6.10
2018-09-15T13:24:14.414Z,6.50
2018-09-15T13:26:43.796Z,6.37
2018-09-15T13:29:12.971Z,7.33
2018-09-15T13:31:43.002Z,5.73
2018-09-15T13:34:12.214Z,5.70
2018-09-15T13:36:42.110Z,6.30
2018-09-15T13:39:12.387Z,6.60
2018-09-15T13:41:41.613Z,6.17
2018-09-15T13:44:10.842Z,5.80
2018-09-15T13:46:40.052Z,5.93
2018-09-15T13:49:09.322Z,5.47
2018-09-15T13:51:38.522Z,5.73
2018-09-15T13:54:11.947Z,5.93
2018-09-15T13:56:41.120Z,6.73
2018-09-15T13:59:10.266Z,5.57
2018-09-15T14:01:39.599Z,5.67
2018-09-15T14:04:08.951Z,6.13
2018-09-15T14:06:38.173Z,6.57
2018-09-15T14:09:09.666Z,5.53
2018-09-15T14:11:38.985Z,5.90
2018-09-15T14:14:08.425Z,6.20
2018-09-15T14:16:37.750Z,5.70
2018-09-15T14:19:07.394Z,5.80
2018-09-15T14:21:36.644Z,6.60
2018-09-15T14:24:05.930Z,5.73
2018-09-15T14:26:35.131Z,5.60
2018-09-15T14:29:04.489Z,5.47
2018-09-15T14:31:34.116Z,5.90
2018-09-15T14:34:03.294Z,5.60
2018-09-15T14:36:33.338Z,4.90
2018-09-15T14:39:02.613Z,5.27
2018-09-15T14:41:31.768Z,6.10
2018-09-15T14:44:00.865Z,5.40
2018-09-15T14:46:30.077Z,5.40
2018-09-15T14:48:59.276Z,5.10
2018-09-15T14:51:28.381Z,6.47
2018-09-15T14:53:57.537Z,4.80
2018-09-15T14:56:26.708Z,5.83
2018-09-15T14:58:55.942Z,5.87
2018-09-15T15:01:25.482Z,5.83
2018-09-15T15:03:54.662Z,5.80
2018-09-15T15:06:24.596Z,5.43
2018-09-15T15:08:53.723Z,6.83
2018-09-15T15:11:22.845Z,9.87
2018-09-15T15:13:52.068Z,6.00
2018-09-15T15:16:21.609Z,5.50
2018-09-15T15:18:50.753Z,7.27
2018-09-15T15:21:19.953Z,6.50
2018-09-15T15:23:49.158Z,8.97
2018-09-15T15:26:18.307Z,5.40
2018-09-15T15:28:47.403Z,5.83
2018-09-15T15:31:16.689Z,6.10
2018-09-15T15:33:46.689Z,6.37
2018-09-15T15:36:15.924Z,6.17
2018-09-15T15:38:45.092Z,6.40
2018-09-15T15:41:14.236Z,5.70
2018-09-15T15:43:43.468Z,6.07
2018-09-15T15:46:12.602Z,5.20
2018-09-15T15:48:41.717Z,6.00
2018-09-15T15:51:10.972Z,5.97
2018-09-15T15:53:40.242Z,6.97
2018-09-15T15:56:09.479Z,5.97
2018-09-15T15:58:38.810Z,5.47
2018-09-15T16:01:07.978Z,5.80
2018-09-15T16:03:37.095Z,6.17
2018-09-15T16:06:06.202Z,5.60
2018-09-15T16:08:36.001Z,6.97
2018-09-15T16:11:05.418Z,6.40
2018-09-15T16:13:35.071Z,6.03
2018-09-15T16:16:04.201Z,5.30
2018-09-15T16:18:33.308Z,6.00
2018-09-15T16:21:02.442Z,6.27
2018-09-15T16:23:31.703Z,6.83
2018-09-15T16:26:00.881Z,6.03
2018-09-15T16:28:30.064Z,5.83
2018-09-15T16:30:59.274Z,5.87
2018-09-15T16:33:28.447Z,8.03
2018-09-15T16:35:57.647Z,6.77
2018-09-15T16:38:26.846Z,7.03
2018-09-15T16:40:56.013Z,7.17
2018-09-15T16:43:25.150Z,6.80
2018-09-15T16:45:54.286Z,6.37
2018-09-15T16:48:23.453Z,6.97
2018-09-15T16:50:52.583Z,7.40
2018-09-15T16:53:21.822Z,7.10
2018-09-15T16:55:50.940Z,7.20
2018-09-15T16:58:20.110Z,6.90
2018-09-15T17:00:49.347Z,7.17
2018-09-15T17:03:18.474Z,6.43
2018-09-15T17:05:47.578Z,7.37
2018-09-15T17:08:16.772Z,7.23
2018-09-15T17:10:46.045Z,7.47
2018-09-15T17:13:15.229Z,8.20
2018-09-15T17:15:45.070Z,8.47
2018-09-15T17:18:14.168Z,8.57
2018-09-15T17:20:43.334Z,8.37
2018-09-15T17:23:12.933Z,8.23
2018-09-15T17:25:42.258Z,7.97
2018-09-15T17:28:11.458Z,8.77
2018-09-15T17:30:40.658Z,9.23
2018-09-15T17:33:09.927Z,8.60
2018-09-15T17:35:39.117Z,8.47
2018-09-15T17:38:08.244Z,9.73
2018-09-15T17:40:37.405Z,8.87
2018-09-15T17:43:06.686Z,9.03
2018-09-15T17:45:35.990Z,8.23
2018-09-15T17:48:05.341Z,9.40
2018-09-15T17:50:34.554Z,9.40
2018-09-15T17:53:03.733Z,8.60
2018-09-15T17:55:33.061Z,9.30
2018-09-15T17:58:02.213Z,10.17
2018-09-15T18:00:35.181Z,9.93
2018-09-15T18:03:04.893Z,9.60
2018-09-15T18:05:34.081Z,9.73
2018-09-15T18:08:03.740Z,9.37
2018-09-15T18:10:33.556Z,9.80
2018-09-15T18:13:02.775Z,10.30
2018-09-15T18:15:32.056Z,10.20
2018-09-15T18:18:01.254Z,9.53
2018-09-15T18:20:30.564Z,10.00
2018-09-15T18:22:59.879Z,10.40
2018-09-15T18:25:29.174Z,10.90
2018-09-15T18:27:58.408Z,11.10
2018-09-15T18:30:27.605Z,15.10
2018-09-15T18:32:56.918Z,22.50
2018-09-15T18:35:26.131Z,25.63
2018-09-15T18:37:55.491Z,17.03
2018-09-15T18:40:24.745Z,14.83
2018-09-15T18:42:54.033Z,15.27
2018-09-15T18:45:23.338Z,15.30
2018-09-15T18:47:52.646Z,17.40
2018-09-15T18:50:21.875Z,16.20
2018-09-15T18:52:51.107Z,17.63
2018-09-15T18:55:20.395Z,16.53
2018-09-15T18:57:49.796Z,17.50
2018-09-15T19:00:18.982Z,17.70
2018-09-15T19:02:48.305Z,17.03
2018-09-15T19:05:17.557Z,17.97
2018-09-15T19:07:46.830Z,18.63
2018-09-15T19:10:16.070Z,15.83
2018-09-15T19:12:45.421Z,15.87
2018-09-15T19:15:14.677Z,14.17
2018-09-15T19:17:43.920Z,13.30
2018-09-15T19:20:13.156Z,13.60
2018-09-15T19:22:42.326Z,16.90
2018-09-15T19:25:11.571Z,14.70
2018-09-15T19:27:40.791Z,14.80
2018-09-15T19:30:10.038Z,15.13
2018-09-15T19:32:39.427Z,13.27
2018-09-15T19:35:08.786Z,13.50
2018-09-15T19:37:38.188Z,14.03
2018-09-15T19:40:07.465Z,13.23
2018-09-15T19:42:36.661Z,14.20
2018-09-15T19:45:06.209Z,14.40
2018-09-15T19:47:35.422Z,15.63
2018-09-15T19:50:04.742Z,15.33
2018-09-15T19:52:34.194Z,17.30
2018-09-15T19:55:03.405Z,18.37
2018-09-15T19:57:32.649Z,20.67
2018-09-15T20:00:01.822Z,17.07
2018-09-15T20:02:31.131Z,15.30
2018-09-15T20:05:00.373Z,15.77
2018-09-15T20:07:29.608Z,15.57
2018-09-15T20:09:58.869Z,15.80
2018-09-15T20:12:30.797Z,15.53
2018-09-15T20:15:02.621Z,15.57
2018-09-15T20:17:30.696Z,16.43
2018-09-15T20:19:58.682Z,15.20
2018-09-15T20:22:27.916Z,16.63
2018-09-15T20:24:57.226Z,15.23
2018-09-15T20:27:26.306Z,17.87
2018-09-15T20:29:55.570Z,17.03
2018-09-15T20:32:24.879Z,17.23
2018-09-15T20:34:54.136Z,16.10
2018-09-15T20:37:23.356Z,14.37
2018-09-15T20:39:52.867Z,15.47
2018-09-15T20:42:22.201Z,15.30
2018-09-15T20:44:51.452Z,16.97
2018-09-15T20:47:20.682Z,16.07
2018-09-15T20:49:49.922Z,16.07
2018-09-15T20:52:19.213Z,16.70
2018-09-15T20:54:48.485Z,16.80
2018-09-15T20:57:17.862Z,16.07
2018-09-15T20:59:47.056Z,16.47
2018-09-15T21:02:16.328Z,15.70
2018-09-15T21:04:45.544Z,16.30
2018-09-15T21:07:14.807Z,17.33
2018-09-15T21:09:44.083Z,17.60
2018-09-15T21:12:13.302Z,16.20
2018-09-15T21:14:42.648Z,15.90
2018-09-15T21:17:11.879Z,17.33
2018-09-15T21:19:41.216Z,16.23
2018-09-15T21:22:10.445Z,16.90
2018-09-15T21:24:39.663Z,16.87
2018-09-15T21:27:09.044Z,17.80
2018-09-15T21:29:38.293Z,18.10
2018-09-15T21:32:07.478Z,17.50
2018-09-15T21:34:36.661Z,16.93
2018-09-15T21:37:06.416Z,16.87
2018-09-15T21:39:35.615Z,16.50
2018-09-15T21:42:04.886Z,17.80
2018-09-15T21:44:34.293Z,17.67
2018-09-15T21:47:03.509Z,15.93
2018-09-15T21:49:32.704Z,17.03
2018-09-15T21:52:01.980Z,16.20
2018-09-15T21:54:31.228Z,16.97
2018-09-15T21:57:00.439Z,16.57
2018-09-15T21:59:29.664Z,15.53
2018-09-15T22:01:58.986Z,17.10
2018-09-15T22:04:28.426Z,16.80
2018-09-15T22:06:57.761Z,15.03
2018-09-15T22:09:27.070Z,16.23
2018-09-15T22:11:56.536Z,16.27
2018-09-15T22:14:25.778Z,16.07
2018-09-15T22:16:55.055Z,15.57
2018-09-15T22:19:24.342Z,16.20
2018-09-15T22:21:56.525Z,15.77
2018-09-15T22:24:25.750Z,16.23
2018-09-15T22:26:55.255Z,17.77
2018-09-15T22:29:24.517Z,17.10
2018-09-15T22:31:53.781Z,17.77
2018-09-15T22:34:23.009Z,18.60
2018-09-15T22:36:52.350Z,18.87
2018-09-15T22:39:21.637Z,18.20
2018-09-15T22:41:50.886Z,17.40
2018-09-15T22:44:20.298Z,18.43
2018-09-15T22:46:49.564Z,16.70
2018-09-15T22:49:18.791Z,17.00
2018-09-15T22:51:48.238Z,17.70
2018-09-15T22:54:17.461Z,18.33
2018-09-15T22:56:46.693Z,17.10
2018-09-15T22:59:16.005Z,17.40
2018-09-15T23:01:45.240Z,16.57
2018-09-15T23:04:15.532Z,16.90
2018-09-15T23:06:44.949Z,17.57
2018-09-15T23:09:14.167Z,15.80
2018-09-15T23:11:43.391Z,16.30
2018-09-15T23:14:12.741Z,17.20
2018-09-15T23:16:41.930Z,17.83
2018-09-15T23:19:11.217Z,18.17
2018-09-15T23:21:40.928Z,18.23
2018-09-15T23:24:10.169Z,18.17
2018-09-15T23:26:39.457Z,18.13
2018-09-15T23:29:08.820Z,17.47
2018-09-15T23:31:38.068Z,18.10
2018-09-15T23:34:07.316Z,18.00
2018-09-15T23:36:36.559Z,18.30
2018-09-15T23:39:08.446Z,17.43
2018-09-15T23:41:37.700Z,18.50
2018-09-15T23:44:06.995Z,18.70
2018-09-15T23:46:36.183Z,20.23
2018-09-15T23:49:05.576Z,19.10
2018-09-15T23:51:34.873Z,18.70
2018-09-15T23:54:04.139Z,17.93
2018-09-15T23:56:33.423Z,18.47
2018-09-15T23:59:02.605Z,18.67
